This is the latest recevied weather packets stored in our database for station/object PY2RMF-10. If no packets are shown the sender has not sent any weather packets the latest 10 day(s).
| Time | Temp. | Humidity | Pressure | Rain* | Wind** | Luminosity | Snow |
|---|---|---|---|---|---|---|---|
| 1777591111 | 20.56° C | 100% | 1006 hPa | - | - | - | - |
| 1777589311 | 20.56° C | 100% | 1005 hPa | - | - | - | - |
| 1777587511 | 21.11° C | 100% | 1005 hPa | - | - | - | - |
| 1777585711 | 21.67° C | 100% | 1004 hPa | - | - | - | - |
| 1777583911 | 22.22° C | 100% | 1004 hPa | - | - | - | - |
| 1777582111 | 23.33° C | 100% | 1003 hPa | - | - | - | - |
| 1777580311 | 25.56° C | 93% | 1003 hPa | - | - | - | - |
| 1777578511 | 27.78° C | 80% | 1002 hPa | - | - | - | - |
| 1777576712 | 30° C | 63% | 1002 hPa | - | - | - | - |
| 1777574911 | 33.89° C | 42% | 1002 hPa | - | - | - | - |
| 1777573111 | 35° C | 38% | 1002 hPa | - | - | - | - |
| 1777571311 | 37.22° C | 36% | 1002 hPa | - | - | - | - |
| 1777569512 | 38.33° C | 32% | 1002 hPa | - | - | - | - |
| 1777567711 | 40.56° C | 32% | 1002 hPa | - | - | - | - |
| 1777567298 | 40° C | 32% | 1002 hPa | - | - | - | - |
| 1777567013 | 40° C | 33% | 1002 hPa | - | - | - | - |
| 1777565214 | 38.89° C | 37% | 1002 hPa | - | - | - | - |
| 1777563414 | 36.11° C | 46% | 1003 hPa | - | - | - | - |
| 1777561613 | 32.78° C | 61% | 1003 hPa | - | - | - | - |
| 1777559814 | 28.89° C | 90% | 1004 hPa | - | - | - | - |
| 1777558013 | 27.22° C | 99% | 1005 hPa | - | - | - | - |
| 1777556214 | 25° C | 100% | 1005 hPa | - | - | - | - |
| 1777554414 | 25.56° C | 100% | 1005 hPa | - | - | - | - |
| 1777552613 | 23.33° C | 100% | 1005 hPa | - | - | - | - |
| 1777550813 | 22.22° C | 100% | 1005 hPa | - | - | - | - |
* Rain since midnight (hover to see other rain measurements)
** Current wind speed in m/s (hover to see current wind gust speed)